Main page
METAR-TAF:

METAR-TAF

Airports :

Cairo, Egypt

Cairo International Airport

latitude: 30-08N, longitude: 031-24E, elevation: 64 m

Current weather observation

The report was made 29 minutes ago, at 08:30 UTC
Wind 6 kt from the North
Temperature 26°C
Humidity 42%
Pressure 1012 hPa
Visibility: 6000 m

METAR: HECA 300830Z 35006KT 6000 NSC 26/12 Q1012 NOSIG

Time: 10:59 (08:59 UTC)

Forecast

The report was made 3 hours and 29 minutes ago, at 05:30 UTC
Forecast valid from 30 at 06 UTC to 01 at 12 UTC
Wind 10 kt from the North/Northeast
Visibility 10 km or more
no clouds below 1500 m and no cumulonimbus
Temporary
from 30 at 06 UTC to 30 at 08 UTC
Visibility: 6000 m
Becoming
from 30 at 08 UTC to 30 at 10 UTC
Visibility 10 km or more
Scattered clouds at a height of 2500 ft

TAF: HECA 300530Z 3006/0112 03010KT CAVOK TEMPO 3006/3008 6000 NSC BECMG 3008/3010 9999 SCT025

Weather observations and forecasts of more than 4000 airports (METAR and TAF reports).

The available stations are represented by yellow and red dots on the map.

Hover mouse over dot to see the name of the station.

Then click to see weather observations and forecasts.

To change the map : click on the green buttons with a black cross to zoom in, on the green button with a dash to zoom out, or on the green arrows for adjacent maps.


METAR-TAF: